Date,TemperatureHighF,TemperatureAvgF,TemperatureLowF,DewpointHighF,DewpointAvgF,DewpointLowF,HumidityHigh,HumidityAvg,HumidityLow,PressureMaxIn,PressureMinIn,WindSpeedMaxMPH,WindSpeedAvgMPH,GustSpeedMaxMPH,PrecipitationSumIn
2013-1-1,80.4,65.8,55.6,49.8,30.1,14.4,66,32,10,30.19,30.02,6,0,6,0.16
2013-1-2,80.6,69.4,62.8,56.5,43.0,22.0,68,43,12,30.05,29.99,6,1,6,0.00
2013-1-3,73.8,66.2,60.3,61.1,53.2,36.0,82,66,26,30.16,30.02,8,0,8,0.16
2013-1-4,62.1,59.7,57.4,56.1,48.4,36.9,85,68,43,30.25,30.14,6,0,6,0.16
2013-1-5,74.8,64.1,57.0,49.5,32.4,14.5,73,36,11,30.28,30.16,6,0,6,0.16
2013-1-6,80.4,68.0,61.7,61.4,47.3,28.1,80,52,17,30.19,30.05,6,0,6,0.00
2013-1-7,66.0,63.8,60.4,60.0,48.6,26.6,81,60,25,30.19,30.11,7,0,7,0.00
2013-1-8,84.6,71.1,62.2,61.6,40.4,16.6,86,42,8,30.19,30.08,0,0,0,0.00
2013-1-9,87.4,75.1,68.5,64.8,40.5,16.2,80,38,8,30.25,30.14,0,0,0,0.00
2013-1-10,85.6,74.1,68.2,64.8,39.4,15.4,82,38,8,30.28,30.19,0,0,0,0.00
2013-1-11,87.1,69.7,66.0,54.9,41.1,14.9,61,40,8,30.25,30.11,5,0,5,0.00
2013-1-12,87.1,73.4,66.2,54.0,38.0,16.6,62,34,8,30.16,30.08,5,0,5,0.00
2013-1-21,60.6,60.6,60.4,28.2,28.1,26.3,29,29,27,30.08,30.08,4,0,4,0.00
2013-1-22,66.9,59.5,51.3,28.2,12.2,2.5,29,16,10,30.28,30.08,10,1,10,0.30
2013-1-23,73.0,57.7,48.2,19.8,6.8,1.2,30,13,9,30.34,30.25,9,0,9,0.00
2013-1-24,74.5,58.5,47.3,32.3,20.7,6.7,50,28,8,30.31,30.22,10,1,10,0.58
2013-1-25,79.3,61.2,51.4,44.1,22.8,6.0,58,29,7,30.31,30.19,6,0,6,0.00
2013-1-26,76.6,67.4,51.4,43.4,22.8,8.7,57,23,8,30.28,30.16,8,1,8,0.00
2013-1-27,83.3,66.1,55.2,53.5,26.3,8.5,73,29,7,30.28,30.19,6,0,6,0.00
2013-1-28,85.1,70.7,63.0,50.3,32.6,15.1,62,30,8,30.31,30.19,4,0,6,0.00
2013-1-29,87.1,71.8,62.6,55.3,36.3,15.6,68,33,8,30.22,30.08,8,1,8,0.30
2013-1-30,82.6,71.6,66.6,45.7,37.4,16.6,46,33,9,30.08,29.96,10,2,10,0.00
2013-2-12,72.3,71.4,68.9,54.3,51.0,46.1,54,48,43,30.08,29.96,6,2,8,0.00
2013-2-13,80.6,71.5,61.3,62.0,46.9,27.1,73,43,20,29.99,29.84,12,2,13,0.00
2013-2-14,64.4,62.0,60.4,53.4,45.6,34.4,76,56,33,30.05,29.90,6,0,7,0.28
2013-2-15,67.5,60.5,57.6,54.4,37.5,12.1,80,49,12,30.08,29.96,6,0,6,0.04
2013-2-16,67.6,57.8,52.0,34.1,15.9,3.7,43,22,10,30.14,29.93,10,2,12,0.00
2013-2-17,56.1,47.7,41.5,5.2,1.3,-1.6,16,14,12,30.34,30.14,8,2,13,0.00
2013-2-18,73.9,54.1,38.1,16.4,5.7,-2.9,30,15,8,30.34,30.19,5,0,5,0.00
2013-2-19,78.1,62.8,54.9,42.2,23.1,13.4,43,24,10,30.19,30.08,8,1,8,0.00
2013-2-20,78.3,66.6,60.4,56.0,35.2,14.9,75,37,10,30.11,30.02,5,0,5,0.00
2013-2-21,84.7,69.2,59.7,43.4,32.1,15.4,51,29,8,30.11,29.99,8,0,8,0.00
2013-2-22,84.2,72.2,63.9,51.5,38.0,16.6,58,33,9,30.08,29.99,10,1,10,0.00
2013-2-23,80.1,73.0,69.8,56.8,48.7,37.4,63,44,22,29.99,29.90,9,1,9,0.00
2013-2-24,70.3,70.2,69.8,63.2,62.7,56.8,78,77,63,29.93,29.87,4,0,4,0.00
2013-2-25,70.3,70.3,70.3,63.2,63.2,63.2,78,78,78,29.90,29.90,0,0,0,0.00
2013-2-26,72.3,70.2,65.8,63.2,46.8,30.5,78,48,22,29.90,29.78,4,0,4,0.00
2013-2-27,73.8,64.6,58.8,41.8,27.5,11.4,48,27,11,29.99,29.87,7,1,7,0.00
2013-2-28,73.2,62.4,54.3,39.5,20.7,7.6,48,24,9,29.99,29.90,8,1,8,0.00
2013-3-1,63.5,56.8,52.9,27.1,10.1,3.7,36,16,11,30.02,29.93,8,1,8,0.00
2013-3-2,59.7,53.9,48.6,22.5,5.4,2.5,35,14,12,30.08,29.99,7,2,8,0.00
2013-3-3,54.5,48.1,43.7,4.7,1.4,-0.9,15,14,13,30.16,29.99,8,2,8,0.00
2013-3-4,69.6,52.8,41.5,15.5,4.4,-1.6,27,14,10,30.22,30.14,6,1,6,0.00
2013-3-5,75.4,59.6,44.1,42.8,22.2,8.7,44,27,8,30.16,30.02,6,1,6,0.00
2013-3-6,66.0,65.9,65.7,44.3,40.4,38.9,46,39,37,30.05,29.96,8,2,8,0.00
2013-3-7,66.9,53.1,45.1,20.7,6.0,-0.2,34,15,10,30.22,30.14,7,1,8,0.00
2013-3-8,75.0,57.7,46.0,32.6,16.9,4.4,54,25,8,30.22,30.11,6,0,6,0.00
2013-3-9,74.5,62.0,50.5,31.6,15.5,6.7,42,19,8,30.22,30.14,6,0,6,0.00
2013-3-10,77.4,62.3,58.5,33.9,24.9,8.8,39,26,10,30.16,30.08,5,0,5,0.00
2013-3-11,78.6,65.9,60.8,37.2,29.3,9.0,40,28,8,30.05,29.90,8,1,8,0.00
2013-3-12,69.1,64.5,57.2,58.4,35.3,14.4,70,36,15,30.05,29.87,7,1,7,0.43
2013-3-13,71.8,59.5,56.1,30.4,15.3,4.9,36,19,9,30.19,30.05,10,2,10,0.00
2013-3-14,65.5,57.0,51.3,27.1,7.6,2.5,33,14,10,30.28,30.16,10,2,10,0.00
2013-3-15,71.6,57.3,46.0,28.9,12.7,3.7,43,20,9,30.28,30.16,7,0,7,0.00
2013-3-16,54.1,51.1,49.8,28.2,22.9,11.1,42,34,18,30.19,30.11,0,0,0,0.00
2013-3-27,58.8,50.4,44.6,14.6,2.9,-0.2,27,14,12,30.31,30.22,11,2,11,0.00
2013-3-28,46.4,45.7,45.5,22.0,20.3,14.2,39,36,27,30.25,30.22,0,0,0,0.00
2013-3-29,76.3,61.0,48.9,31.9,14.8,6.0,46,20,8,30.31,30.19,6,0,6,0.00
2013-3-30,76.6,63.3,52.3,34.7,18.8,7.6,42,21,8,30.25,30.14,4,0,4,0.00
2013-3-31,60.6,60.3,59.5,36.3,34.1,29.7,41,37,31,30.16,30.11,0,0,0,0.00
2013-4-1,60.4,60.4,60.4,34.1,34.1,34.1,37,37,37,30.11,30.11,0,0,0,0.00